sensor_id;sensor_type;location;lat;lon;timestamp;P1;durP1;ratioP1;P2;durP2;ratioP2
18239;SDS011;9244;50.828;4.718;2023-08-24T00:00:40;7.80;;;5.40;;
18239;SDS011;9244;50.828;4.718;2023-08-24T00:03:06;6.47;;;4.85;;
18239;SDS011;9244;50.828;4.718;2023-08-24T00:05:33;7.90;;;5.53;;
18239;SDS011;9244;50.828;4.718;2023-08-24T00:08:04;7.32;;;5.47;;
18239;SDS011;9244;50.828;4.718;2023-08-24T00:10:30;6.53;;;5.40;;
18239;SDS011;9244;50.828;4.718;2023-08-24T00:12:55;6.57;;;5.25;;
18239;SDS011;9244;50.828;4.718;2023-08-24T00:15:21;9.25;;;5.82;;
18239;SDS011;9244;50.828;4.718;2023-08-24T00:17:47;9.35;;;5.82;;
18239;SDS011;9244;50.828;4.718;2023-08-24T00:20:12;8.98;;;5.43;;
18239;SDS011;9244;50.828;4.718;2023-08-24T00:22:38;7.68;;;5.82;;
18239;SDS011;9244;50.828;4.718;2023-08-24T00:25:04;8.23;;;6.10;;
18239;SDS011;9244;50.828;4.718;2023-08-24T00:27:33;8.88;;;5.57;;
18239;SDS011;9244;50.828;4.718;2023-08-24T00:30:00;6.15;;;5.35;;
18239;SDS011;9244;50.828;4.718;2023-08-24T00:32:28;6.32;;;5.72;;
18239;SDS011;9244;50.828;4.718;2023-08-24T00:34:55;9.10;;;5.97;;
18239;SDS011;9244;50.828;4.718;2023-08-24T00:37:21;7.10;;;6.32;;
18239;SDS011;9244;50.828;4.718;2023-08-24T00:39:46;7.38;;;6.65;;
18239;SDS011;9244;50.828;4.718;2023-08-24T00:42:12;9.65;;;6.65;;
18239;SDS011;9244;50.828;4.718;2023-08-24T00:44:40;8.10;;;6.75;;
18239;SDS011;9244;50.828;4.718;2023-08-24T00:47:06;8.55;;;6.43;;
18239;SDS011;9244;50.828;4.718;2023-08-24T00:49:33;7.07;;;6.38;;
18239;SDS011;9244;50.828;4.718;2023-08-24T00:51:59;9.90;;;6.55;;
18239;SDS011;9244;50.828;4.718;2023-08-24T00:54:25;6.78;;;6.03;;
18239;SDS011;9244;50.828;4.718;2023-08-24T00:56:51;8.40;;;5.72;;
18239;SDS011;9244;50.828;4.718;2023-08-24T00:59:18;8.88;;;6.57;;
18239;SDS011;9244;50.828;4.718;2023-08-24T01:01:44;7.20;;;5.82;;
18239;SDS011;9244;50.828;4.718;2023-08-24T01:04:12;8.02;;;6.05;;
18239;SDS011;9244;50.828;4.718;2023-08-24T01:06:38;6.65;;;5.97;;
18239;SDS011;9244;50.828;4.718;2023-08-24T01:09:04;6.55;;;5.90;;
18239;SDS011;9244;50.828;4.718;2023-08-24T01:14:41;6.30;;;5.70;;
18239;SDS011;9244;50.828;4.718;2023-08-24T01:17:11;7.47;;;5.53;;
18239;SDS011;9244;50.828;4.718;2023-08-24T01:19:43;6.18;;;5.57;;
18239;SDS011;9244;50.828;4.718;2023-08-24T01:22:20;8.48;;;5.20;;
18239;SDS011;9244;50.828;4.718;2023-08-24T01:25:00;7.13;;;5.75;;
18239;SDS011;9244;50.828;4.718;2023-08-24T01:27:42;8.57;;;5.18;;
18239;SDS011;9244;50.828;4.718;2023-08-24T01:30:09;6.30;;;5.63;;
18239;SDS011;9244;50.828;4.718;2023-08-24T01:32:36;7.70;;;5.97;;
18239;SDS011;9244;50.828;4.718;2023-08-24T01:35:02;8.18;;;5.85;;
18239;SDS011;9244;50.828;4.718;2023-08-24T01:37:34;7.25;;;5.95;;
18239;SDS011;9244;50.828;4.718;2023-08-24T01:40:08;8.80;;;6.38;;
18239;SDS011;9244;50.828;4.718;2023-08-24T01:42:49;7.20;;;5.95;;
18239;SDS011;9244;50.828;4.718;2023-08-24T01:45:22;7.72;;;6.07;;
18239;SDS011;9244;50.828;4.718;2023-08-24T01:47:52;9.02;;;6.80;;
18239;SDS011;9244;50.828;4.718;2023-08-24T01:50:20;9.80;;;6.85;;
18239;SDS011;9244;50.828;4.718;2023-08-24T01:52:47;8.13;;;6.75;;
18239;SDS011;9244;50.828;4.718;2023-08-24T01:55:13;6.70;;;6.00;;
18239;SDS011;9244;50.828;4.718;2023-08-24T01:57:40;9.25;;;6.82;;
18239;SDS011;9244;50.828;4.718;2023-08-24T02:00:06;9.10;;;6.55;;
18239;SDS011;9244;50.828;4.718;2023-08-24T02:02:34;8.50;;;6.47;;
18239;SDS011;9244;50.828;4.718;2023-08-24T02:04:59;8.57;;;6.68;;
18239;SDS011;9244;50.828;4.718;2023-08-24T02:07:25;7.15;;;6.43;;
18239;SDS011;9244;50.828;4.718;2023-08-24T02:09:51;7.30;;;5.93;;
18239;SDS011;9244;50.828;4.718;2023-08-24T02:12:16;10.60;;;6.90;;
18239;SDS011;9244;50.828;4.718;2023-08-24T02:14:42;9.68;;;6.72;;
18239;SDS011;9244;50.828;4.718;2023-08-24T02:17:07;8.70;;;6.07;;
18239;SDS011;9244;50.828;4.718;2023-08-24T02:19:33;8.98;;;6.25;;
18239;SDS011;9244;50.828;4.718;2023-08-24T02:21:59;11.13;;;6.43;;
18239;SDS011;9244;50.828;4.718;2023-08-24T02:24:25;7.60;;;6.53;;
18239;SDS011;9244;50.828;4.718;2023-08-24T02:26:51;7.43;;;6.72;;
18239;SDS011;9244;50.828;4.718;2023-08-24T02:29:16;7.60;;;6.25;;
18239;SDS011;9244;50.828;4.718;2023-08-24T02:31:42;9.32;;;6.90;;
18239;SDS011;9244;50.828;4.718;2023-08-24T02:34:08;7.75;;;6.95;;
18239;SDS011;9244;50.828;4.718;2023-08-24T02:36:33;7.80;;;6.45;;
18239;SDS011;9244;50.828;4.718;2023-08-24T02:38:59;7.82;;;6.57;;
18239;SDS011;9244;50.828;4.718;2023-08-24T02:41:25;9.45;;;7.57;;
18239;SDS011;9244;50.828;4.718;2023-08-24T02:43:52;8.98;;;7.13;;
18239;SDS011;9244;50.828;4.718;2023-08-24T02:46:18;9.07;;;7.30;;
18239;SDS011;9244;50.828;4.718;2023-08-24T02:48:44;9.95;;;8.25;;
18239;SDS011;9244;50.828;4.718;2023-08-24T02:51:10;8.00;;;7.15;;
18239;SDS011;9244;50.828;4.718;2023-08-24T02:53:35;7.78;;;7.07;;
18239;SDS011;9244;50.828;4.718;2023-08-24T02:56:01;10.52;;;8.02;;
18239;SDS011;9244;50.828;4.718;2023-08-24T02:58:27;10.15;;;7.57;;
18239;SDS011;9244;50.828;4.718;2023-08-24T03:00:53;10.13;;;7.97;;
18239;SDS011;9244;50.828;4.718;2023-08-24T03:03:19;10.77;;;7.80;;
18239;SDS011;9244;50.828;4.718;2023-08-24T03:05:58;11.77;;;8.48;;
18239;SDS011;9244;50.828;4.718;2023-08-24T03:08:25;8.77;;;7.97;;
18239;SDS011;9244;50.828;4.718;2023-08-24T03:10:51;8.38;;;7.47;;
18239;SDS011;9244;50.828;4.718;2023-08-24T03:13:17;10.35;;;8.27;;
18239;SDS011;9244;50.828;4.718;2023-08-24T03:15:43;8.98;;;7.65;;
18239;SDS011;9244;50.828;4.718;2023-08-24T03:18:12;9.38;;;7.85;;
18239;SDS011;9244;50.828;4.718;2023-08-24T03:20:38;8.25;;;7.45;;
18239;SDS011;9244;50.828;4.718;2023-08-24T03:23:05;8.15;;;7.45;;
18239;SDS011;9244;50.828;4.718;2023-08-24T03:25:32;8.60;;;7.68;;
18239;SDS011;9244;50.828;4.718;2023-08-24T03:28:01;9.05;;;7.70;;
18239;SDS011;9244;50.828;4.718;2023-08-24T03:30:27;11.77;;;7.80;;
18239;SDS011;9244;50.828;4.718;2023-08-24T03:32:53;9.25;;;8.30;;
18239;SDS011;9244;50.828;4.718;2023-08-24T03:35:19;9.27;;;7.75;;
18239;SDS011;9244;50.828;4.718;2023-08-24T03:37:44;9.98;;;8.85;;
18239;SDS011;9244;50.828;4.718;2023-08-24T03:40:11;15.05;;;7.72;;
18239;SDS011;9244;50.828;4.718;2023-08-24T03:42:37;8.70;;;7.88;;
18239;SDS011;9244;50.828;4.718;2023-08-24T03:45:03;11.82;;;7.53;;
18239;SDS011;9244;50.828;4.718;2023-08-24T03:47:29;12.77;;;8.43;;
18239;SDS011;9244;50.828;4.718;2023-08-24T03:49:54;8.73;;;7.63;;
18239;SDS011;9244;50.828;4.718;2023-08-24T03:52:20;9.32;;;7.05;;
18239;SDS011;9244;50.828;4.718;2023-08-24T03:54:46;8.20;;;6.63;;
18239;SDS011;9244;50.828;4.718;2023-08-24T03:57:11;9.90;;;6.20;;
18239;SDS011;9244;50.828;4.718;2023-08-24T03:59:37;8.48;;;6.78;;
18239;SDS011;9244;50.828;4.718;2023-08-24T04:02:03;7.03;;;5.50;;
18239;SDS011;9244;50.828;4.718;2023-08-24T04:04:29;7.30;;;6.18;;
18239;SDS011;9244;50.828;4.718;2023-08-24T04:06:55;9.65;;;5.90;;
18239;SDS011;9244;50.828;4.718;2023-08-24T04:09:21;14.23;;;6.10;;
18239;SDS011;9244;50.828;4.718;2023-08-24T04:11:47;7.28;;;5.40;;
18239;SDS011;9244;50.828;4.718;2023-08-24T04:14:12;7.38;;;5.22;;
18239;SDS011;9244;50.828;4.718;2023-08-24T04:16:39;6.57;;;5.50;;
18239;SDS011;9244;50.828;4.718;2023-08-24T04:19:04;7.05;;;5.03;;
18239;SDS011;9244;50.828;4.718;2023-08-24T04:21:30;6.95;;;5.55;;
18239;SDS011;9244;50.828;4.718;2023-08-24T04:23:56;6.03;;;5.43;;
18239;SDS011;9244;50.828;4.718;2023-08-24T04:26:21;7.75;;;5.60;;
18239;SDS011;9244;50.828;4.718;2023-08-24T04:28:47;5.38;;;4.82;;
18239;SDS011;9244;50.828;4.718;2023-08-24T04:31:13;6.05;;;5.13;;
18239;SDS011;9244;50.828;4.718;2023-08-24T04:33:38;8.23;;;5.47;;
18239;SDS011;9244;50.828;4.718;2023-08-24T04:36:04;8.05;;;4.80;;
18239;SDS011;9244;50.828;4.718;2023-08-24T04:38:30;7.72;;;4.93;;
18239;SDS011;9244;50.828;4.718;2023-08-24T04:40:55;6.70;;;4.85;;
18239;SDS011;9244;50.828;4.718;2023-08-24T04:43:22;7.85;;;4.93;;
18239;SDS011;9244;50.828;4.718;2023-08-24T04:45:52;6.78;;;5.60;;
18239;SDS011;9244;50.828;4.718;2023-08-24T04:48:22;6.45;;;5.07;;
18239;SDS011;9244;50.828;4.718;2023-08-24T04:50:49;7.50;;;5.80;;
18239;SDS011;9244;50.828;4.718;2023-08-24T04:53:16;7.32;;;5.03;;
18239;SDS011;9244;50.828;4.718;2023-08-24T04:55:43;8.38;;;5.97;;
18239;SDS011;9244;50.828;4.718;2023-08-24T04:58:09;8.85;;;5.50;;
18239;SDS011;9244;50.828;4.718;2023-08-24T05:00:36;6.18;;;5.10;;
18239;SDS011;9244;50.828;4.718;2023-08-24T05:03:02;9.65;;;5.50;;
18239;SDS011;9244;50.828;4.718;2023-08-24T05:05:29;6.25;;;5.65;;
18239;SDS011;9244;50.828;4.718;2023-08-24T05:07:56;6.05;;;5.55;;
18239;SDS011;9244;50.828;4.718;2023-08-24T05:10:22;7.30;;;5.43;;
18239;SDS011;9244;50.828;4.718;2023-08-24T05:12:47;7.90;;;5.70;;
18239;SDS011;9244;50.828;4.718;2023-08-24T05:15:13;6.88;;;5.88;;
18239;SDS011;9244;50.828;4.718;2023-08-24T05:17:39;8.23;;;5.57;;
18239;SDS011;9244;50.828;4.718;2023-08-24T05:20:05;6.82;;;5.78;;
18239;SDS011;9244;50.828;4.718;2023-08-24T05:22:33;6.00;;;5.28;;
18239;SDS011;9244;50.828;4.718;2023-08-24T05:24:59;7.20;;;5.22;;
18239;SDS011;9244;50.828;4.718;2023-08-24T05:27:25;8.57;;;5.60;;
18239;SDS011;9244;50.828;4.718;2023-08-24T05:29:51;6.55;;;5.10;;
18239;SDS011;9244;50.828;4.718;2023-08-24T05:32:16;5.32;;;4.80;;
18239;SDS011;9244;50.828;4.718;2023-08-24T05:34:42;7.15;;;4.93;;
18239;SDS011;9244;50.828;4.718;2023-08-24T05:37:07;5.70;;;5.20;;
18239;SDS011;9244;50.828;4.718;2023-08-24T05:39:33;6.25;;;4.57;;
18239;SDS011;9244;50.828;4.718;2023-08-24T05:41:58;5.20;;;4.50;;
18239;SDS011;9244;50.828;4.718;2023-08-24T05:44:24;5.25;;;4.75;;
18239;SDS011;9244;50.828;4.718;2023-08-24T05:46:50;7.72;;;4.68;;
18239;SDS011;9244;50.828;4.718;2023-08-24T05:49:15;5.55;;;4.50;;
18239;SDS011;9244;50.828;4.718;2023-08-24T05:51:41;6.15;;;5.22;;
18239;SDS011;9244;50.828;4.718;2023-08-24T05:54:06;5.82;;;5.30;;
18239;SDS011;9244;50.828;4.718;2023-08-24T05:56:32;6.28;;;4.95;;
18239;SDS011;9244;50.828;4.718;2023-08-24T05:58:58;7.10;;;4.85;;
18239;SDS011;9244;50.828;4.718;2023-08-24T06:01:24;5.47;;;4.32;;
18239;SDS011;9244;50.828;4.718;2023-08-24T06:03:49;7.03;;;4.85;;
18239;SDS011;9244;50.828;4.718;2023-08-24T06:06:15;4.40;;;4.00;;
18239;SDS011;9244;50.828;4.718;2023-08-24T06:08:42;6.80;;;4.78;;
18239;SDS011;9244;50.828;4.718;2023-08-24T06:11:08;5.80;;;4.63;;
18239;SDS011;9244;50.828;4.718;2023-08-24T06:13:34;5.57;;;4.45;;
18239;SDS011;9244;50.828;4.718;2023-08-24T06:16:00;4.97;;;3.88;;
18239;SDS011;9244;50.828;4.718;2023-08-24T06:18:26;4.63;;;4.10;;
18239;SDS011;9244;50.828;4.718;2023-08-24T06:20:52;6.13;;;3.97;;
18239;SDS011;9244;50.828;4.718;2023-08-24T06:23:19;5.28;;;4.78;;
18239;SDS011;9244;50.828;4.718;2023-08-24T06:25:45;4.35;;;3.90;;
18239;SDS011;9244;50.828;4.718;2023-08-24T06:28:11;6.53;;;4.72;;
18239;SDS011;9244;50.828;4.718;2023-08-24T06:30:40;5.30;;;4.03;;
18239;SDS011;9244;50.828;4.718;2023-08-24T06:33:08;3.97;;;3.58;;
18239;SDS011;9244;50.828;4.718;2023-08-24T06:35:35;4.22;;;3.83;;
18239;SDS011;9244;50.828;4.718;2023-08-24T06:38:02;4.40;;;3.90;;
18239;SDS011;9244;50.828;4.718;2023-08-24T06:40:28;4.82;;;3.65;;
18239;SDS011;9244;50.828;4.718;2023-08-24T06:42:55;4.47;;;3.67;;
18239;SDS011;9244;50.828;4.718;2023-08-24T06:45:21;5.22;;;3.40;;
18239;SDS011;9244;50.828;4.718;2023-08-24T06:47:47;5.60;;;3.70;;
18239;SDS011;9244;50.828;4.718;2023-08-24T06:50:14;5.07;;;3.40;;
18239;SDS011;9244;50.828;4.718;2023-08-24T06:52:40;3.88;;;3.50;;
18239;SDS011;9244;50.828;4.718;2023-08-24T06:55:07;6.75;;;3.67;;
18239;SDS011;9244;50.828;4.718;2023-08-24T06:57:35;3.63;;;3.28;;
18239;SDS011;9244;50.828;4.718;2023-08-24T07:00:00;4.78;;;3.90;;
18239;SDS011;9244;50.828;4.718;2023-08-24T07:02:31;5.13;;;3.80;;
18239;SDS011;9244;50.828;4.718;2023-08-24T07:04:57;4.38;;;3.70;;
18239;SDS011;9244;50.828;4.718;2023-08-24T07:07:23;4.00;;;3.65;;
18239;SDS011;9244;50.828;4.718;2023-08-24T07:09:48;6.38;;;4.10;;
18239;SDS011;9244;50.828;4.718;2023-08-24T07:12:14;6.10;;;4.32;;
18239;SDS011;9244;50.828;4.718;2023-08-24T07:14:39;5.05;;;3.85;;
18239;SDS011;9244;50.828;4.718;2023-08-24T07:17:06;9.13;;;4.00;;
18239;SDS011;9244;50.828;4.718;2023-08-24T07:19:31;5.10;;;3.88;;
18239;SDS011;9244;50.828;4.718;2023-08-24T07:21:57;4.35;;;3.33;;
18239;SDS011;9244;50.828;4.718;2023-08-24T07:24:23;4.70;;;3.50;;
18239;SDS011;9244;50.828;4.718;2023-08-24T07:26:52;3.78;;;3.38;;
18239;SDS011;9244;50.828;4.718;2023-08-24T07:29:18;4.50;;;3.47;;
18239;SDS011;9244;50.828;4.718;2023-08-24T07:31:45;3.38;;;3.03;;
18239;SDS011;9244;50.828;4.718;2023-08-24T07:34:10;4.55;;;3.45;;
18239;SDS011;9244;50.828;4.718;2023-08-24T07:36:36;4.35;;;3.25;;
18239;SDS011;9244;50.828;4.718;2023-08-24T07:39:01;4.13;;;3.25;;
18239;SDS011;9244;50.828;4.718;2023-08-24T07:41:27;4.47;;;3.80;;
18239;SDS011;9244;50.828;4.718;2023-08-24T07:43:53;4.70;;;3.35;;
18239;SDS011;9244;50.828;4.718;2023-08-24T07:46:19;4.20;;;3.30;;
18239;SDS011;9244;50.828;4.718;2023-08-24T07:48:44;3.55;;;3.25;;
18239;SDS011;9244;50.828;4.718;2023-08-24T07:51:10;3.67;;;3.33;;
18239;SDS011;9244;50.828;4.718;2023-08-24T07:53:36;6.47;;;3.70;;
18239;SDS011;9244;50.828;4.718;2023-08-24T07:56:02;3.55;;;3.25;;
18239;SDS011;9244;50.828;4.718;2023-08-24T07:58:28;6.03;;;3.97;;
18239;SDS011;9244;50.828;4.718;2023-08-24T08:00:53;4.78;;;3.60;;
18239;SDS011;9244;50.828;4.718;2023-08-24T08:03:19;5.10;;;3.35;;
18239;SDS011;9244;50.828;4.718;2023-08-24T08:05:45;4.43;;;3.53;;
18239;SDS011;9244;50.828;4.718;2023-08-24T08:08:15;6.25;;;3.30;;
18239;SDS011;9244;50.828;4.718;2023-08-24T08:10:41;4.40;;;3.55;;
18239;SDS011;9244;50.828;4.718;2023-08-24T08:13:07;4.57;;;3.33;;
18239;SDS011;9244;50.828;4.718;2023-08-24T08:15:33;6.45;;;3.60;;
18239;SDS011;9244;50.828;4.718;2023-08-24T08:17:59;4.93;;;3.33;;
18239;SDS011;9244;50.828;4.718;2023-08-24T08:20:25;4.60;;;2.97;;
18239;SDS011;9244;50.828;4.718;2023-08-24T08:22:50;6.65;;;3.50;;
18239;SDS011;9244;50.828;4.718;2023-08-24T08:25:16;4.72;;;3.10;;
18239;SDS011;9244;50.828;4.718;2023-08-24T08:27:47;4.30;;;3.08;;
18239;SDS011;9244;50.828;4.718;2023-08-24T08:30:13;3.92;;;3.20;;
18239;SDS011;9244;50.828;4.718;2023-08-24T08:32:39;4.85;;;3.05;;
18239;SDS011;9244;50.828;4.718;2023-08-24T08:35:05;3.42;;;3.05;;
18239;SDS011;9244;50.828;4.718;2023-08-24T08:37:31;8.50;;;3.72;;
18239;SDS011;9244;50.828;4.718;2023-08-24T08:39:57;4.18;;;3.00;;
18239;SDS011;9244;50.828;4.718;2023-08-24T08:42:23;5.90;;;3.28;;
18239;SDS011;9244;50.828;4.718;2023-08-24T08:44:49;3.75;;;3.10;;
18239;SDS011;9244;50.828;4.718;2023-08-24T08:47:15;4.57;;;3.10;;
18239;SDS011;9244;50.828;4.718;2023-08-24T08:49:43;4.95;;;3.70;;
18239;SDS011;9244;50.828;4.718;2023-08-24T08:52:09;6.10;;;3.33;;
18239;SDS011;9244;50.828;4.718;2023-08-24T08:54:36;4.50;;;3.75;;
18239;SDS011;9244;50.828;4.718;2023-08-24T08:57:02;5.60;;;3.83;;
18239;SDS011;9244;50.828;4.718;2023-08-24T08:59:28;4.80;;;3.90;;
18239;SDS011;9244;50.828;4.718;2023-08-24T09:01:56;5.30;;;3.60;;
18239;SDS011;9244;50.828;4.718;2023-08-24T09:04:26;5.10;;;3.63;;
18239;SDS011;9244;50.828;4.718;2023-08-24T09:06:54;5.15;;;3.90;;
18239;SDS011;9244;50.828;4.718;2023-08-24T09:09:21;4.35;;;3.78;;
18239;SDS011;9244;50.828;4.718;2023-08-24T09:11:49;5.57;;;3.80;;
18239;SDS011;9244;50.828;4.718;2023-08-24T09:14:15;4.95;;;3.75;;
18239;SDS011;9244;50.828;4.718;2023-08-24T09:16:41;7.10;;;3.30;;
18239;SDS011;9244;50.828;4.718;2023-08-24T09:19:10;3.58;;;3.28;;
18239;SDS011;9244;50.828;4.718;2023-08-24T09:21:37;5.22;;;3.40;;
18239;SDS011;9244;50.828;4.718;2023-08-24T09:24:04;5.68;;;3.75;;
18239;SDS011;9244;50.828;4.718;2023-08-24T09:26:31;4.35;;;3.72;;
18239;SDS011;9244;50.828;4.718;2023-08-24T09:28:58;3.95;;;3.60;;
18239;SDS011;9244;50.828;4.718;2023-08-24T09:31:37;7.40;;;3.70;;
18239;SDS011;9244;50.828;4.718;2023-08-24T09:34:04;6.18;;;3.50;;
18239;SDS011;9244;50.828;4.718;2023-08-24T09:36:31;5.65;;;4.13;;
18239;SDS011;9244;50.828;4.718;2023-08-24T09:38:58;5.32;;;3.70;;
18239;SDS011;9244;50.828;4.718;2023-08-24T09:41:48;4.90;;;4.15;;
18239;SDS011;9244;50.828;4.718;2023-08-24T09:44:13;5.18;;;3.35;;
18239;SDS011;9244;50.828;4.718;2023-08-24T09:46:39;5.47;;;3.90;;
18239;SDS011;9244;50.828;4.718;2023-08-24T09:49:09;4.55;;;4.15;;
18239;SDS011;9244;50.828;4.718;2023-08-24T09:51:36;5.50;;;4.00;;
18239;SDS011;9244;50.828;4.718;2023-08-24T09:54:05;5.50;;;3.85;;
18239;SDS011;9244;50.828;4.718;2023-08-24T09:56:34;4.45;;;3.97;;
18239;SDS011;9244;50.828;4.718;2023-08-24T09:59:11;7.68;;;4.07;;
18239;SDS011;9244;50.828;4.718;2023-08-24T10:01:43;9.20;;;6.03;;
18239;SDS011;9244;50.828;4.718;2023-08-24T10:04:12;0.20;;;0.20;;
18239;SDS011;9244;50.828;4.718;2023-08-24T10:06:39;0.43;;;0.43;;
18239;SDS011;9244;50.828;4.718;2023-08-24T10:09:08;0.10;;;0.10;;
18239;SDS011;9244;50.828;4.718;2023-08-24T10:11:42;0.40;;;0.40;;
18239;SDS011;9244;50.828;4.718;2023-08-24T10:14:36;0.50;;;0.50;;
18239;SDS011;9244;50.828;4.718;2023-08-24T10:17:12;0.52;;;0.52;;
18239;SDS011;9244;50.828;4.718;2023-08-24T10:19:39;1.40;;;1.23;;
18239;SDS011;9244;50.828;4.718;2023-08-24T10:22:06;1.65;;;0.80;;
18239;SDS011;9244;50.828;4.718;2023-08-24T10:24:33;1.95;;;0.82;;
18239;SDS011;9244;50.828;4.718;2023-08-24T10:26:59;0.60;;;0.60;;
18239;SDS011;9244;50.828;4.718;2023-08-24T10:29:27;0.68;;;0.68;;
18239;SDS011;9244;50.828;4.718;2023-08-24T10:31:54;0.75;;;0.75;;
18239;SDS011;9244;50.828;4.718;2023-08-24T10:34:20;0.52;;;0.52;;
18239;SDS011;9244;50.828;4.718;2023-08-24T10:36:47;1.35;;;0.70;;
18239;SDS011;9244;50.828;4.718;2023-08-24T10:39:16;0.82;;;0.82;;
18239;SDS011;9244;50.828;4.718;2023-08-24T10:49:37;1.10;;;1.08;;
18239;SDS011;9244;50.828;4.718;2023-08-24T10:54:51;0.35;;;0.35;;
18239;SDS011;9244;50.828;4.718;2023-08-24T10:57:17;0.70;;;0.70;;
18239;SDS011;9244;50.828;4.718;2023-08-24T11:00:02;1.17;;;1.00;;
18239;SDS011;9244;50.828;4.718;2023-08-24T11:02:41;0.47;;;0.47;;
18239;SDS011;9244;50.828;4.718;2023-08-24T11:05:16;0.77;;;0.77;;
18239;SDS011;9244;50.828;4.718;2023-08-24T11:08:15;0.20;;;0.20;;
18239;SDS011;9244;50.828;4.718;2023-08-24T11:13:17;0.47;;;0.47;;
18239;SDS011;9244;50.828;4.718;2023-08-24T11:15:47;0.43;;;0.43;;
18239;SDS011;9244;50.828;4.718;2023-08-24T11:20:45;0.68;;;0.68;;
18239;SDS011;9244;50.828;4.718;2023-08-24T11:23:12;1.95;;;1.23;;
18239;SDS011;9244;50.828;4.718;2023-08-24T11:25:40;0.77;;;0.77;;
18239;SDS011;9244;50.828;4.718;2023-08-24T11:28:06;1.40;;;0.65;;
18239;SDS011;9244;50.828;4.718;2023-08-24T11:30:31;0.90;;;0.63;;
18239;SDS011;9244;50.828;4.718;2023-08-24T11:32:58;0.82;;;0.82;;
18239;SDS011;9244;50.828;4.718;2023-08-24T11:35:24;0.30;;;0.30;;
18239;SDS011;9244;50.828;4.718;2023-08-24T11:37:56;0.57;;;0.57;;
18239;SDS011;9244;50.828;4.718;2023-08-24T11:40:22;1.10;;;0.93;;
18239;SDS011;9244;50.828;4.718;2023-08-24T11:42:54;0.60;;;0.60;;
18239;SDS011;9244;50.828;4.718;2023-08-24T11:45:21;0.17;;;0.17;;
18239;SDS011;9244;50.828;4.718;2023-08-24T11:47:47;0.50;;;0.50;;
18239;SDS011;9244;50.828;4.718;2023-08-24T11:50:14;2.10;;;1.02;;
18239;SDS011;9244;50.828;4.718;2023-08-24T11:52:40;0.20;;;0.20;;
18239;SDS011;9244;50.828;4.718;2023-08-24T11:55:08;0.20;;;0.20;;
18239;SDS011;9244;50.828;4.718;2023-08-24T11:57:35;0.73;;;0.73;;
18239;SDS011;9244;50.828;4.718;2023-08-24T12:00:02;0.30;;;0.30;;
18239;SDS011;9244;50.828;4.718;2023-08-24T12:02:29;0.40;;;0.40;;
18239;SDS011;9244;50.828;4.718;2023-08-24T12:04:58;1.40;;;1.20;;
18239;SDS011;9244;50.828;4.718;2023-08-24T12:07:24;0.45;;;0.45;;
18239;SDS011;9244;50.828;4.718;2023-08-24T12:09:53;0.75;;;0.75;;
18239;SDS011;9244;50.828;4.718;2023-08-24T12:12:20;0.32;;;0.32;;
18239;SDS011;9244;50.828;4.718;2023-08-24T12:14:47;0.52;;;0.52;;
18239;SDS011;9244;50.828;4.718;2023-08-24T12:17:13;0.77;;;0.77;;
18239;SDS011;9244;50.828;4.718;2023-08-24T12:19:43;0.57;;;0.57;;
18239;SDS011;9244;50.828;4.718;2023-08-24T12:22:15;0.60;;;0.60;;
18239;SDS011;9244;50.828;4.718;2023-08-24T12:24:45;0.82;;;0.82;;
18239;SDS011;9244;50.828;4.718;2023-08-24T12:27:22;0.98;;;0.98;;
18239;SDS011;9244;50.828;4.718;2023-08-24T12:29:49;0.43;;;0.43;;
18239;SDS011;9244;50.828;4.718;2023-08-24T12:32:15;0.57;;;0.57;;
18239;SDS011;9244;50.828;4.718;2023-08-24T12:34:44;0.40;;;0.40;;
18239;SDS011;9244;50.828;4.718;2023-08-24T12:37:11;0.52;;;0.52;;
18239;SDS011;9244;50.828;4.718;2023-08-24T12:39:37;0.40;;;0.40;;
18239;SDS011;9244;50.828;4.718;2023-08-24T12:42:04;1.10;;;1.10;;
18239;SDS011;9244;50.828;4.718;2023-08-24T12:44:31;2.25;;;1.08;;
18239;SDS011;9244;50.828;4.718;2023-08-24T12:46:57;0.32;;;0.32;;
18239;SDS011;9244;50.828;4.718;2023-08-24T12:49:23;2.55;;;1.10;;
18239;SDS011;9244;50.828;4.718;2023-08-24T12:51:49;0.35;;;0.35;;
18239;SDS011;9244;50.828;4.718;2023-08-24T12:54:15;0.55;;;0.55;;
18239;SDS011;9244;50.828;4.718;2023-08-24T12:56:40;0.40;;;0.40;;
18239;SDS011;9244;50.828;4.718;2023-08-24T12:59:06;0.40;;;0.40;;
18239;SDS011;9244;50.828;4.718;2023-08-24T13:01:33;0.82;;;0.82;;
18239;SDS011;9244;50.828;4.718;2023-08-24T13:03:59;0.32;;;0.32;;
18239;SDS011;9244;50.828;4.718;2023-08-24T13:06:25;0.60;;;0.60;;
18239;SDS011;9244;50.828;4.718;2023-08-24T13:08:52;0.35;;;0.35;;
18239;SDS011;9244;50.828;4.718;2023-08-24T13:11:18;0.85;;;0.63;;
18239;SDS011;9244;50.828;4.718;2023-08-24T13:13:44;0.10;;;0.10;;
18239;SDS011;9244;50.828;4.718;2023-08-24T13:16:13;1.33;;;1.23;;
18239;SDS011;9244;50.828;4.718;2023-08-24T13:18:39;0.30;;;0.30;;
18239;SDS011;9244;50.828;4.718;2023-08-24T13:21:05;0.30;;;0.30;;
18239;SDS011;9244;50.828;4.718;2023-08-24T13:23:30;0.20;;;0.20;;
18239;SDS011;9244;50.828;4.718;2023-08-24T13:25:57;0.20;;;0.20;;
18239;SDS011;9244;50.828;4.718;2023-08-24T13:28:24;0.30;;;0.30;;
18239;SDS011;9244;50.828;4.718;2023-08-24T13:30:49;0.80;;;0.73;;
18239;SDS011;9244;50.828;4.718;2023-08-24T13:33:15;0.30;;;0.30;;
18239;SDS011;9244;50.828;4.718;2023-08-24T13:35:40;0.80;;;0.80;;
18239;SDS011;9244;50.828;4.718;2023-08-24T13:38:06;2.10;;;0.65;;
18239;SDS011;9244;50.828;4.718;2023-08-24T13:40:32;1.88;;;1.55;;
18239;SDS011;9244;50.828;4.718;2023-08-24T13:42:58;0.28;;;0.28;;
18239;SDS011;9244;50.828;4.718;2023-08-24T13:45:23;0.20;;;0.20;;
18239;SDS011;9244;50.828;4.718;2023-08-24T13:47:49;0.20;;;0.20;;
18239;SDS011;9244;50.828;4.718;2023-08-24T13:50:15;0.20;;;0.20;;
18239;SDS011;9244;50.828;4.718;2023-08-24T13:52:40;0.40;;;0.40;;
18239;SDS011;9244;50.828;4.718;2023-08-24T13:55:06;0.20;;;0.20;;
18239;SDS011;9244;50.828;4.718;2023-08-24T13:57:32;0.17;;;0.17;;
18239;SDS011;9244;50.828;4.718;2023-08-24T13:59:58;0.10;;;0.10;;
18239;SDS011;9244;50.828;4.718;2023-08-24T14:02:24;0.30;;;0.30;;
18239;SDS011;9244;50.828;4.718;2023-08-24T14:04:50;0.10;;;0.10;;
18239;SDS011;9244;50.828;4.718;2023-08-24T14:07:16;0.40;;;0.40;;
18239;SDS011;9244;50.828;4.718;2023-08-24T14:09:41;0.25;;;0.25;;
18239;SDS011;9244;50.828;4.718;2023-08-24T14:12:07;0.55;;;0.52;;
18239;SDS011;9244;50.828;4.718;2023-08-24T14:14:33;1.38;;;0.47;;
18239;SDS011;9244;50.828;4.718;2023-08-24T14:16:58;1.27;;;1.17;;
18239;SDS011;9244;50.828;4.718;2023-08-24T14:19:24;0.10;;;0.10;;
18239;SDS011;9244;50.828;4.718;2023-08-24T14:21:50;0.20;;;0.20;;
18239;SDS011;9244;50.828;4.718;2023-08-24T14:24:16;0.10;;;0.10;;
18239;SDS011;9244;50.828;4.718;2023-08-24T14:26:42;0.20;;;0.20;;
18239;SDS011;9244;50.828;4.718;2023-08-24T14:29:10;2.08;;;0.52;;
18239;SDS011;9244;50.828;4.718;2023-08-24T14:31:36;0.82;;;0.82;;
18239;SDS011;9244;50.828;4.718;2023-08-24T14:34:02;1.35;;;0.75;;
18239;SDS011;9244;50.828;4.718;2023-08-24T14:36:28;0.10;;;0.10;;
18239;SDS011;9244;50.828;4.718;2023-08-24T14:38:54;0.17;;;0.17;;
18239;SDS011;9244;50.828;4.718;2023-08-24T14:41:20;0.10;;;0.10;;
18239;SDS011;9244;50.828;4.718;2023-08-24T14:43:46;0.40;;;0.40;;
18239;SDS011;9244;50.828;4.718;2023-08-24T14:46:12;0.60;;;0.43;;
18239;SDS011;9244;50.828;4.718;2023-08-24T14:48:38;0.50;;;0.50;;
18239;SDS011;9244;50.828;4.718;2023-08-24T14:51:04;0.30;;;0.30;;
18239;SDS011;9244;50.828;4.718;2023-08-24T14:53:30;0.20;;;0.20;;
18239;SDS011;9244;50.828;4.718;2023-08-24T14:55:56;0.52;;;0.40;;
18239;SDS011;9244;50.828;4.718;2023-08-24T14:58:22;0.40;;;0.40;;
18239;SDS011;9244;50.828;4.718;2023-08-24T15:00:49;0.30;;;0.30;;
18239;SDS011;9244;50.828;4.718;2023-08-24T15:03:16;0.20;;;0.20;;
18239;SDS011;9244;50.828;4.718;2023-08-24T15:05:43;0.13;;;0.13;;
18239;SDS011;9244;50.828;4.718;2023-08-24T15:08:10;0.22;;;0.22;;
18239;SDS011;9244;50.828;4.718;2023-08-24T15:10:37;0.80;;;0.80;;
18239;SDS011;9244;50.828;4.718;2023-08-24T15:13:03;0.43;;;0.43;;
18239;SDS011;9244;50.828;4.718;2023-08-24T15:15:30;0.10;;;0.10;;
18239;SDS011;9244;50.828;4.718;2023-08-24T15:17:56;0.55;;;0.55;;